Mallet, Brazil
Current Conditions -  °F | °C
As of 10:00 PM on Friday 28 Nov 2014 (Local Time) from SBBI Reporting Station
Broken Clouds Broken Clouds  
Wind Chill: 63°   Ceiling: 1600
Heat Index: 63°   Visibility: 6mi
Dew Point: 57°   Wind: 12mph
Humidity: 82%   Direction: 120°ESE
Pressure: 30.15"   Gusts: NA
Location:  25.88°S, 50.82°W
Report Text: SBBI 290000Z 12010KT 9999 SCT013 BKN016 17/14 Q1021
Loading
Personal Weather Stations






























Interactive Weather Map New forecast layout! Learn more

10-Day Weather Forecast

Advertisements
Track Severe Weather on mobile